createdAt,value
2022-08-28T17:32:50.368Z,20.87
2022-08-28T17:36:28.895Z,19.70
2022-08-28T17:39:34.670Z,19.56
2022-08-28T17:42:43.108Z,20.10
2022-08-28T17:45:49.711Z,19.97
2022-08-28T17:49:39.035Z,19.93
2022-08-28T17:53:00.129Z,20.44
2022-08-28T17:56:33.296Z,21.86
2022-08-28T18:27:11.923Z,20.61
2022-08-28T18:30:19.085Z,20.68
2022-08-28T18:33:22.104Z,20.50
2022-08-28T18:36:29.953Z,22.08
2022-08-28T18:39:30.073Z,21.68
2022-08-28T18:42:39.326Z,21.26
2022-08-28T18:45:38.499Z,21.01
2022-08-28T18:48:45.900Z,20.51
2022-08-28T18:51:46.569Z,20.16
2022-08-28T18:58:04.225Z,20.20
2022-08-28T19:00:52.760Z,21.14
2022-08-28T19:03:41.653Z,20.09
2022-08-28T19:06:28.114Z,21.24
2022-08-28T19:09:19.215Z,19.67
2022-08-28T19:12:08.349Z,20.92
2022-08-28T19:14:57.561Z,21.38
2022-08-28T19:17:44.710Z,21.82
2022-08-28T19:20:33.403Z,21.53
2022-08-28T19:23:19.923Z,21.32
2022-08-28T19:26:24.641Z,21.18
2022-08-28T19:29:12.868Z,20.06
2022-08-28T19:32:00.828Z,21.08
2022-08-28T19:34:48.033Z,20.55
2022-08-28T19:37:34.347Z,19.41
2022-08-28T19:40:22.043Z,18.83
2022-08-28T19:43:14.128Z,18.33
2022-08-28T19:46:03.262Z,18.35
2022-08-28T19:48:51.714Z,18.15
2022-08-28T19:51:40.095Z,18.04
2022-08-28T19:54:26.824Z,17.87
2022-08-28T19:57:21.287Z,17.99
2022-08-28T20:00:17.862Z,17.40
2022-08-28T20:03:05.596Z,17.16
2022-08-28T20:05:55.547Z,17.02
2022-08-28T20:08:44.543Z,16.92
2022-08-28T20:11:32.737Z,16.79
2022-08-28T20:17:28.953Z,16.58
2022-08-28T20:20:16.143Z,16.56
2022-08-28T20:23:09.798Z,16.48
2022-08-28T20:25:58.702Z,16.48
2022-08-28T20:28:45.653Z,16.53
2022-08-28T20:31:33.384Z,16.44
2022-08-28T20:34:28.763Z,16.46
2022-08-28T20:37:17.819Z,16.45
2022-08-28T20:40:21.609Z,16.44
2022-08-28T20:43:15.728Z,16.44
2022-08-28T20:46:06.368Z,16.40
2022-08-28T20:48:55.825Z,16.39
2022-08-28T20:51:56.378Z,16.39
2022-08-28T20:54:44.355Z,16.42
2022-08-28T20:57:33.041Z,16.41
2022-08-28T21:03:28.315Z,16.41
2022-08-28T21:06:15.709Z,16.37
2022-08-28T21:15:37.120Z,16.36
2022-08-28T21:18:23.983Z,16.33
2022-08-28T21:21:10.843Z,16.33
2022-08-28T21:24:01.148Z,16.30
2022-08-28T21:26:52.389Z,16.24
2022-08-28T21:29:41.285Z,16.22
2022-08-28T21:32:33.033Z,16.25
2022-08-28T21:35:20.216Z,16.24
2022-08-28T21:38:07.670Z,16.26
2022-08-28T21:40:59.240Z,16.25
2022-08-28T21:43:48.075Z,16.25
2022-08-28T21:49:43.639Z,16.29
2022-08-28T21:52:34.908Z,16.32
